Stuart, VA

8:07 AM EDT on September 03, 2015 (GMT -0400)
Mulberry farm | | Change Station
CLOSE
Current Station
Personal Weather Station
Location: Stuart, VA
Elevation: 1604 ft
Nearby Weather Stations

Elev 1604 ft 36.65 °N, 80.32 °W | Updated 33 seconds ago

Clear
Clear
65.1 °F
Feels Like 65.1 °F
N
0.0
Wind Variable Wind from SSW
Gusts 0.0 mph

Today
High -- | Low -- °F
--% Chance of Precip.
Yesterday
High -- | Low -- °F
Precip. -- in
6:53 AM 7:46 PM
Waning Gibbous, 71% visible
Pressure 30.03 in
Visibility 7.0 miles
Clouds Clear
Dew Point 65 °F
Humidity 100%
Rainfall 0.00 in
Snow Depth Not available.
UV 1 out of 12
Pollen 9.00 out of 12
Air Quality Not available.
Flu Activity Not available.
METAR KMTV 031150Z AUTO 00000KT 7SM CLR 18/18 A3003 RMK AO2 T01840184 10190 20165
Pressure 30.03 in
Visibility 7.0 miles
Clouds Clear
Dew Point 65 °F
Humidity 100%
Rainfall 0.00 in
Snow Depth Not available.
UV 1 out of 12
Pollen 9.00 out of 12
Air Quality Not available.
Flu Activity Not available.
METAR KMTV 031150Z AUTO 00000KT 7SM CLR 18/18 A3003 RMK AO2 T01840184 10190 20165

10-Day Weather Forecast

×

Almanac

Astronomy

Sep. 03, 2015 Rise Set
Actual Time
Civil Twilight
Nautical Twilight
Astronomical Twilight
Moon
Length of Visible Light
Length of Day
Tomorrow will be .
, % of the Moon is Illuminated

Today's Extremes

State Highs State Lows

Community

WunderPhotos

Upload Photos

1,851,941 photos uploaded!

WunderBlogs® & News

Nearby

Air Quality

  Air Quality AQ Index Pollutant
Not available.

Snow Depth

Station Depth Elevation

Earthquake Activity

City Distance Mag. Time & Date
Minimum magnitude displayed is 2.5.

Coastal Water Temperatures

Place Temperature

Stations

Nearby Weather Stations

Station Location Temp. Windchill Dew Point Humidity Wind Precip. Elev Updated Type